Shefford, Canada
Current Conditions -  °F | °C
As of 12:15 PM on Thursday 27 Nov 2014 (Local Time) from KEFK Reporting Station
Overcast Overcast  
Wind Chill: 18°   Ceiling: 2200
Heat Index: 26°   Visibility: 10mi
Dew Point: 20°   Wind: 7mph
Humidity: 79%   Direction: 330°NNW
Pressure: 29.98"   Gusts: NA
Location:  45.42°N, 72.58°W
Report Text: KEFK 271715Z AUTO 33006KT 10SM OVC022 M04/M07 A2998 RMK AO2 T10361068
Loading
Personal Weather Stations






























Interactive Weather Map New forecast layout! Learn more

10-Day Weather Forecast

Advertisements
Track Severe Weather on mobile